Time;durP1;ratioP1;P1;durP2;ratioP2;P2;SDS_P1;SDS_P2;PMS_P1;PMS_P2;Temp;Humidity;BMP_temperature;BMP_pressure;BME280_temperature;BME280_humidity;BME280_pressure;Samples;Min_cycle;Max_cycle;Signal;HPM_P1;HPM_P2
2021/10/21 00:01:17;;;;;;;0.70;0.50;;;17.30;99.90;;;;;;5016751;28;20180;-68
2021/10/21 00:03:42;;;;;;;4.23;0.77;;;17.30;99.90;;;;;;5023976;28;20657;-69
2021/10/21 00:06:08;;;;;;;0.70;0.60;;;17.40;99.90;;;;;;5030635;28;20446;-67
2021/10/21 00:08:34;;;;;;;0.70;0.50;;;17.30;99.90;;;;;;5030145;28;20187;-68
2021/10/21 00:10:59;;;;;;;1.27;0.60;;;17.40;99.90;;;;;;5015013;28;20183;-68
2021/10/21 00:13:25;;;;;;;1.73;1.63;;;17.30;99.90;;;;;;5018529;28;20175;-69
2021/10/21 00:15:50;;;;;;;0.80;0.60;;;17.30;99.90;;;;;;5027928;28;20207;-69
2021/10/21 00:18:16;;;;;;;0.70;0.50;;;17.30;99.90;;;;;;5017142;28;20514;-68
2021/10/21 00:20:42;;;;;;;0.70;0.60;;;17.30;99.90;;;;;;5031552;28;20173;-67
2021/10/21 00:23:08;;;;;;;0.80;0.80;;;17.10;99.90;;;;;;5016779;28;20661;-69
2021/10/21 00:25:33;;;;;;;0.70;0.50;;;16.90;99.90;;;;;;5016077;28;20219;-70
2021/10/21 00:27:59;;;;;;;0.70;0.50;;;16.70;99.90;;;;;;5025676;28;20641;-67
2021/10/21 00:30:25;;;;;;;0.80;0.50;;;16.40;99.90;;;;;;5020913;28;20286;-69
2021/10/21 00:32:51;;;;;;;0.70;0.70;;;16.20;99.90;;;;;;5021665;28;20168;-69
2021/10/21 00:35:17;;;;;;;1.87;0.60;;;16.10;99.90;;;;;;5014745;28;20478;-69
2021/10/21 00:37:42;;;;;;;0.70;0.50;;;15.90;99.90;;;;;;5014913;28;20431;-67
2021/10/21 00:40:08;;;;;;;0.70;0.50;;;15.70;99.90;;;;;;5016087;28;20199;-69
2021/10/21 00:42:34;;;;;;;0.70;0.60;;;15.60;99.90;;;;;;5030434;28;20175;-69
2021/10/21 00:45:00;;;;;;;0.80;0.70;;;15.50;99.90;;;;;;5024595;28;20443;-69
2021/10/21 00:47:26;;;;;;;0.80;0.60;;;15.40;99.90;;;;;;5018904;28;20229;-68
2021/10/21 00:49:52;;;;;;;0.90;0.80;;;15.30;99.90;;;;;;5014688;28;20712;-70
2021/10/21 00:52:17;;;;;;;0.70;0.50;;;15.30;99.90;;;;;;5015744;28;20447;-68
2021/10/21 00:54:45;;;;;;;0.70;0.50;;;15.20;99.90;;;;;;5015190;28;20192;-69
2021/10/21 00:57:13;;;;;;;0.93;0.83;;;15.20;99.90;;;;;;5033739;28;20559;-67
2021/10/21 00:59:41;;;;;;;0.90;0.60;;;15.30;99.90;;;;;;5028920;28;20415;-67
2021/10/21 01:02:07;;;;;;;0.87;0.87;;;15.20;99.90;;;;;;5033298;28;20442;-67
2021/10/21 01:04:32;;;;;;;0.70;0.50;;;15.20;99.90;;;;;;5029941;28;20415;-68
2021/10/21 01:06:58;;;;;;;3.03;1.33;;;15.20;99.90;;;;;;5014157;28;20407;-67
2021/10/21 01:09:24;;;;;;;0.70;0.50;;;15.30;99.90;;;;;;5020214;28;20207;-67
2021/10/21 01:11:51;;;;;;;1.67;1.57;;;15.20;99.90;;;;;;5032593;28;20574;-67
2021/10/21 01:14:18;;;;;;;3.80;1.60;;;15.30;99.90;;;;;;5025870;28;20459;-68
2021/10/21 01:16:44;;;;;;;0.70;0.50;;;15.20;99.90;;;;;;5022921;28;20982;-68
2021/10/21 01:19:21;;;;;;;0.70;0.50;;;15.20;99.90;;;;;;5032491;28;20517;-68
2021/10/21 01:21:49;;;;;;;0.70;0.50;;;15.10;99.90;;;;;;5030797;28;20182;-68
2021/10/21 01:24:15;;;;;;;0.70;0.50;;;15.10;99.90;;;;;;5032543;28;20527;-69
2021/10/21 01:26:48;;;;;;;0.70;0.50;;;15.00;99.90;;;;;;5033617;28;20799;-70
2021/10/21 01:29:14;;;;;;;0.70;0.50;;;14.90;99.90;;;;;;5032783;28;20469;-69
2021/10/21 01:31:41;;;;;;;0.70;0.50;;;15.00;99.90;;;;;;5022075;28;20414;-69
2021/10/21 01:34:08;;;;;;;1.33;0.93;;;15.00;99.90;;;;;;5015010;28;20426;-70
2021/10/21 01:36:34;;;;;;;0.70;0.50;;;14.90;99.90;;;;;;5031696;28;20434;-69
2021/10/21 01:38:59;;;;;;;0.80;0.60;;;14.90;99.90;;;;;;5032998;28;20418;-68
2021/10/21 01:41:25;;;;;;;1.47;1.27;;;14.90;99.90;;;;;;5033292;28;20425;-70
2021/10/21 01:43:51;;;;;;;0.70;0.50;;;14.90;99.90;;;;;;5025806;28;20200;-68
2021/10/21 01:46:16;;;;;;;0.70;0.50;;;14.90;99.90;;;;;;5013183;28;20196;-70
2021/10/21 01:48:42;;;;;;;0.70;0.50;;;14.80;99.90;;;;;;5013722;28;20176;-69
2021/10/21 01:51:08;;;;;;;1.10;1.00;;;14.80;99.90;;;;;;5019449;28;20172;-70
2021/10/21 01:53:34;;;;;;;5.60;0.77;;;14.80;99.90;;;;;;5020183;28;20426;-70
2021/10/21 01:55:59;;;;;;;0.70;0.50;;;14.80;99.90;;;;;;5012981;28;20307;-71
2021/10/21 01:58:25;;;;;;;0.70;0.50;;;14.70;99.90;;;;;;5023641;28;20179;-71
2021/10/21 02:00:51;;;;;;;0.80;0.70;;;14.70;99.90;;;;;;5027943;28;20302;-73
2021/10/21 02:03:16;;;;;;;0.70;0.50;;;14.70;99.90;;;;;;5033046;28;20197;-71
2021/10/21 02:05:42;;;;;;;0.70;0.50;;;14.70;99.90;;;;;;5015422;28;20545;-69
2021/10/21 02:08:07;;;;;;;0.70;0.50;;;14.60;99.90;;;;;;5013336;28;20658;-69
2021/10/21 02:10:33;;;;;;;0.70;0.50;;;14.60;99.90;;;;;;5013245;28;20207;-68
2021/10/21 02:12:58;;;;;;;0.70;0.50;;;14.70;99.90;;;;;;5027438;28;20186;-69
2021/10/21 02:15:24;;;;;;;0.70;0.50;;;14.60;99.90;;;;;;5032391;28;20191;-70
2021/10/21 02:17:49;;;;;;;0.70;0.50;;;14.60;99.90;;;;;;5027062;28;20173;-68
2021/10/21 02:20:15;;;;;;;0.70;0.50;;;14.50;99.90;;;;;;5021825;28;20169;-68
2021/10/21 02:22:43;;;;;;;0.70;0.50;;;14.40;99.90;;;;;;5032880;28;20591;-69
2021/10/21 02:25:11;;;;;;;0.70;0.50;;;14.40;99.90;;;;;;5030869;28;20435;-67
2021/10/21 02:27:37;;;;;;;0.70;0.50;;;14.40;99.90;;;;;;5013221;28;20423;-72
2021/10/21 02:30:04;;;;;;;0.70;0.50;;;14.20;99.90;;;;;;5025843;28;20558;-69
2021/10/21 02:32:30;;;;;;;1.13;1.00;;;14.20;99.90;;;;;;5024993;28;20446;-69
2021/10/21 02:34:55;;;;;;;0.70;0.50;;;14.20;99.90;;;;;;5018735;28;20499;-69
2021/10/21 02:37:21;;;;;;;3.17;0.60;;;14.20;99.90;;;;;;5018626;28;20164;-70
2021/10/21 02:39:46;;;;;;;0.70;0.50;;;14.20;99.90;;;;;;5016721;28;20167;-70
2021/10/21 02:42:12;;;;;;;0.70;0.50;;;14.10;99.90;;;;;;5031049;28;20706;-70
2021/10/21 02:44:37;;;;;;;0.80;0.50;;;14.10;99.90;;;;;;5032302;28;20175;-69
2021/10/21 02:47:03;;;;;;;0.70;0.50;;;14.20;99.90;;;;;;5016380;28;20647;-69
2021/10/21 02:49:29;;;;;;;2.10;2.00;;;14.10;99.90;;;;;;5013652;28;20199;-69
2021/10/21 02:51:54;;;;;;;0.70;0.50;;;14.10;99.90;;;;;;5028713;28;20184;-69
2021/10/21 02:54:20;;;;;;;0.70;0.50;;;14.10;99.90;;;;;;5032078;28;20167;-70
2021/10/21 02:56:45;;;;;;;0.70;0.50;;;14.10;99.90;;;;;;5030171;28;20683;-70
2021/10/21 02:59:11;;;;;;;0.70;0.50;;;14.10;99.90;;;;;;5032476;28;20167;-68
2021/10/21 03:01:36;;;;;;;0.70;0.50;;;14.10;99.90;;;;;;5015755;28;20700;-70
2021/10/21 03:04:02;;;;;;;0.70;0.50;;;14.20;99.90;;;;;;5012282;28;20164;-70
2021/10/21 03:06:28;;;;;;;0.70;0.50;;;14.20;99.90;;;;;;5010626;28;20192;-69
2021/10/21 03:08:54;;;;;;;0.70;0.50;;;14.10;99.90;;;;;;5012146;28;20171;-69
2021/10/21 03:11:20;;;;;;;0.70;0.50;;;14.10;99.90;;;;;;5022901;28;20179;-69
2021/10/21 03:13:45;;;;;;;0.83;0.83;;;14.20;99.90;;;;;;5030112;28;20457;-69
2021/10/21 03:16:11;;;;;;;0.70;0.60;;;14.20;99.90;;;;;;5012795;28;20211;-69
2021/10/21 03:18:37;;;;;;;0.70;0.50;;;14.20;99.90;;;;;;5012229;28;20171;-69
2021/10/21 03:21:02;;;;;;;0.70;0.60;;;14.20;99.90;;;;;;5026609;28;20175;-70
2021/10/21 03:23:28;;;;;;;0.70;0.50;;;14.20;99.90;;;;;;5024528;28;20225;-69
2021/10/21 03:25:54;;;;;;;0.70;0.50;;;14.20;99.90;;;;;;5026516;28;20700;-69
2021/10/21 03:28:20;;;;;;;0.70;0.50;;;14.20;99.90;;;;;;5022069;28;20222;-70
2021/10/21 03:30:46;;;;;;;0.70;0.50;;;14.30;99.90;;;;;;5031670;28;20893;-68
2021/10/21 03:33:12;;;;;;;0.70;0.50;;;14.30;99.90;;;;;;5031342;28;20501;-68
2021/10/21 03:35:41;;;;;;;1.73;0.70;;;14.30;99.90;;;;;;5031504;28;20977;-67
2021/10/21 03:38:07;;;;;;;0.70;0.50;;;14.40;99.90;;;;;;5031295;28;20243;-68
2021/10/21 03:40:33;;;;;;;0.70;0.50;;;14.40;99.90;;;;;;5019717;28;20418;-71
2021/10/21 03:42:58;;;;;;;0.70;0.50;;;14.30;99.90;;;;;;5029397;28;20508;-69
2021/10/21 03:45:24;;;;;;;0.70;0.50;;;14.30;99.90;;;;;;5031384;28;20195;-70
2021/10/21 03:47:50;;;;;;;0.70;0.50;;;14.30;99.90;;;;;;5029817;28;20167;-70
2021/10/21 03:50:16;;;;;;;0.70;0.50;;;14.20;99.90;;;;;;5014886;28;20673;-72
2021/10/21 03:52:41;;;;;;;0.70;0.50;;;14.10;99.90;;;;;;5013011;28;20175;-69
2021/10/21 03:55:07;;;;;;;1.30;1.20;;;14.00;99.90;;;;;;5019723;28;21000;-69
2021/10/21 03:57:33;;;;;;;0.70;0.50;;;14.00;99.90;;;;;;5018767;28;20289;-70
2021/10/21 03:59:59;;;;;;;0.70;0.50;;;14.10;99.90;;;;;;5016103;28;20179;-69
2021/10/21 04:02:24;;;;;;;0.80;0.70;;;14.00;99.90;;;;;;5019164;28;20670;-69
2021/10/21 04:04:50;;;;;;;0.70;0.50;;;13.90;99.90;;;;;;5015379;28;20591;-70
2021/10/21 04:07:16;;;;;;;0.70;0.50;;;13.80;99.90;;;;;;5015558;28;20177;-70
2021/10/21 04:09:41;;;;;;;0.70;0.50;;;13.80;99.90;;;;;;5023463;28;20479;-69
2021/10/21 04:12:07;;;;;;;0.70;0.50;;;13.80;99.90;;;;;;5034938;28;20180;-70
2021/10/21 04:14:32;;;;;;;0.70;0.50;;;13.80;99.90;;;;;;5025475;28;20176;-70
2021/10/21 04:16:58;;;;;;;1.47;1.37;;;13.80;99.90;;;;;;5018905;28;20178;-70
2021/10/21 04:19:24;;;;;;;0.70;0.50;;;13.70;99.90;;;;;;5035105;28;20690;-69
2021/10/21 04:21:49;;;;;;;0.70;0.50;;;13.70;99.90;;;;;;5033472;28;20527;-70
2021/10/21 04:24:15;;;;;;;0.70;0.50;;;13.70;99.90;;;;;;5029099;28;20179;-69
2021/10/21 04:26:40;;;;;;;0.70;0.50;;;13.70;99.90;;;;;;5014909;28;20223;-69
2021/10/21 04:29:06;;;;;;;0.70;0.50;;;13.70;99.90;;;;;;5015017;28;20566;-70
2021/10/21 04:31:32;;;;;;;1.03;0.90;;;13.70;99.90;;;;;;5016323;28;20199;-70
2021/10/21 04:33:57;;;;;;;0.70;0.50;;;13.70;99.90;;;;;;5015164;28;20178;-69
2021/10/21 04:36:23;;;;;;;0.70;0.50;;;13.70;99.90;;;;;;5032307;28;20706;-70
2021/10/21 04:38:49;;;;;;;0.70;0.50;;;13.60;99.90;;;;;;5023657;28;20656;-69
2021/10/21 04:41:14;;;;;;;0.70;0.50;;;13.60;99.90;;;;;;5013720;28;20164;-70
2021/10/21 04:43:40;;;;;;;0.70;0.50;;;13.60;99.90;;;;;;5014845;28;20235;-70
2021/10/21 04:46:05;;;;;;;0.70;0.50;;;13.60;99.90;;;;;;5018896;28;20187;-70
2021/10/21 04:48:31;;;;;;;0.70;0.50;;;13.70;99.90;;;;;;5022856;28;20204;-70
2021/10/21 04:50:56;;;;;;;0.70;0.50;;;13.50;99.90;;;;;;5014802;28;20286;-68
2021/10/21 04:53:22;;;;;;;0.70;0.50;;;13.50;99.90;;;;;;5021360;28;20172;-68
2021/10/21 04:55:47;;;;;;;0.70;0.50;;;13.60;99.90;;;;;;5022035;28;20203;-68
2021/10/21 04:58:13;;;;;;;0.70;0.50;;;13.60;99.90;;;;;;5028231;28;20669;-69
2021/10/21 05:00:38;;;;;;;0.70;0.50;;;13.50;99.90;;;;;;5015724;28;20576;-69
2021/10/21 05:03:08;;;;;;;0.80;0.70;;;13.50;99.90;;;;;;5014611;28;20176;-67
2021/10/21 05:05:34;;;;;;;0.70;0.50;;;13.50;99.90;;;;;;5018405;28;20282;-68
2021/10/21 05:08:00;;;;;;;0.70;0.50;;;13.40;99.90;;;;;;5034027;28;20505;-69
2021/10/21 05:10:25;;;;;;;0.70;0.60;;;13.40;99.90;;;;;;5033928;28;20660;-70
2021/10/21 05:12:51;;;;;;;0.70;0.50;;;13.40;99.90;;;;;;5033886;28;20577;-71
2021/10/21 05:15:18;;;;;;;0.70;0.50;;;13.30;99.90;;;;;;5033806;28;20230;-71
2021/10/21 05:17:43;;;;;;;0.70;0.50;;;13.30;99.90;;;;;;5028431;28;20179;-67
2021/10/21 05:20:10;;;;;;;0.70;0.50;;;13.20;99.90;;;;;;5031659;28;20414;-68
2021/10/21 05:22:36;;;;;;;0.70;0.53;;;13.20;99.90;;;;;;5034023;28;20218;-69
2021/10/21 05:25:01;;;;;;;0.90;0.70;;;13.20;99.90;;;;;;5033343;28;20434;-71
2021/10/21 05:27:27;;;;;;;0.70;0.50;;;13.20;99.90;;;;;;5034246;28;20175;-71
2021/10/21 05:29:53;;;;;;;0.70;0.50;;;13.10;99.90;;;;;;5031769;28;20206;-69
2021/10/21 05:32:18;;;;;;;0.70;0.50;;;13.10;99.90;;;;;;5031999;28;20167;-69
2021/10/21 05:34:45;;;;;;;0.70;0.50;;;13.00;99.90;;;;;;5033425;28;20171;-70
2021/10/21 05:37:12;;;;;;;0.70;0.50;;;13.00;99.90;;;;;;5022546;28;20168;-69
2021/10/21 05:39:38;;;;;;;0.70;0.50;;;13.00;99.90;;;;;;5015004;28;20900;-68
2021/10/21 05:42:03;;;;;;;0.70;0.50;;;12.90;99.90;;;;;;5013736;28;20501;-69
2021/10/21 05:44:29;;;;;;;0.70;0.50;;;12.80;99.90;;;;;;5015569;28;20179;-70
2021/10/21 05:46:55;;;;;;;1.27;0.60;;;12.70;99.90;;;;;;5029248;28;20176;-70
2021/10/21 05:49:20;;;;;;;0.70;0.50;;;12.50;99.90;;;;;;5031751;28;20191;-67
2021/10/21 05:51:46;;;;;;;0.70;0.50;;;12.50;99.90;;;;;;5022202;28;20163;-71
2021/10/21 05:54:13;;;;;;;0.70;0.50;;;12.40;99.90;;;;;;5033471;28;20160;-73
2021/10/21 05:56:38;;;;;;;0.70;0.50;;;12.20;99.90;;;;;;5032898;28;20445;-69
2021/10/21 05:59:04;;;;;;;0.70;0.50;;;12.00;99.90;;;;;;5022880;28;20965;-70
2021/10/21 06:01:30;;;;;;;0.70;0.50;;;12.00;99.90;;;;;;5017543;28;20229;-69
2021/10/21 06:03:56;;;;;;;0.70;0.50;;;12.00;99.90;;;;;;5033130;28;20183;-70
2021/10/21 06:06:22;;;;;;;0.70;0.50;;;11.90;99.90;;;;;;5032080;28;20943;-69
2021/10/21 06:08:47;;;;;;;0.70;0.50;;;11.80;99.90;;;;;;5013425;28;20176;-70
2021/10/21 06:11:13;;;;;;;0.70;0.60;;;11.80;99.90;;;;;;5014411;28;20172;-70
2021/10/21 06:13:40;;;;;;;0.70;0.50;;;11.70;99.90;;;;;;5023512;28;20172;-70
2021/10/21 06:16:06;;;;;;;0.70;0.50;;;11.70;99.90;;;;;;5022041;28;20945;-69
2021/10/21 06:18:34;;;;;;;0.70;0.50;;;11.60;99.90;;;;;;5031345;28;20453;-70
2021/10/21 06:21:06;;;;;;;0.70;0.50;;;11.60;99.90;;;;;;5025982;28;20474;-69
2021/10/21 06:23:32;;;;;;;0.70;0.50;;;11.50;99.90;;;;;;5013120;28;20458;-69
2021/10/21 06:25:58;;;;;;;0.70;0.50;;;11.30;99.90;;;;;;5012644;28;20457;-69
2021/10/21 06:28:24;;;;;;;1.03;0.70;;;11.30;99.90;;;;;;5016155;28;20445;-70
2021/10/21 06:30:49;;;;;;;0.70;0.50;;;11.30;99.90;;;;;;5012913;28;20207;-70
2021/10/21 06:33:15;;;;;;;0.70;0.50;;;11.20;99.90;;;;;;5012935;28;20164;-69
2021/10/21 06:35:42;;;;;;;0.70;0.50;;;11.20;99.90;;;;;;5021416;28;20962;-69
2021/10/21 06:38:07;;;;;;;0.70;0.50;;;11.20;99.90;;;;;;5032647;28;20171;-69
2021/10/21 06:40:33;;;;;;;0.70;0.50;;;11.20;99.90;;;;;;5027129;28;20434;-70
2021/10/21 06:42:59;;;;;;;0.70;0.50;;;11.10;99.90;;;;;;5013960;28;20176;-69
2021/10/21 06:45:25;;;;;;;0.70;0.50;;;11.10;99.90;;;;;;5012423;28;20286;-69
2021/10/21 06:47:51;;;;;;;0.70;0.50;;;11.10;99.90;;;;;;5012993;28;21079;-69
2021/10/21 06:50:16;;;;;;;0.70;0.50;;;11.10;99.90;;;;;;5026310;28;20516;-69
2021/10/21 06:52:47;;;;;;;0.70;0.50;;;11.00;99.90;;;;;;5032148;28;20168;-71
2021/10/21 06:55:14;;;;;;;0.70;0.50;;;10.90;99.90;;;;;;5025139;28;20188;-69
2021/10/21 06:57:55;;;;;;;0.70;0.50;;;10.90;99.90;;;;;;5026645;28;20521;-68
2021/10/21 07:00:20;;;;;;;0.70;0.50;;;10.80;99.90;;;;;;5028176;28;20415;-67
2021/10/21 07:02:46;;;;;;;0.70;0.50;;;10.90;99.90;;;;;;5015499;28;20514;-67
2021/10/21 07:05:13;;;;;;;0.70;0.50;;;10.90;99.90;;;;;;5030181;28;20204;-67
2021/10/21 07:07:40;;;;;;;0.70;0.50;;;10.90;99.90;;;;;;5012398;28;20262;-68
2021/10/21 07:10:06;;;;;;;0.70;0.50;;;10.90;99.90;;;;;;5013047;28;20473;-69
2021/10/21 07:12:36;;;;;;;0.70;0.50;;;10.90;99.90;;;;;;5012261;28;20395;-68
2021/10/21 07:15:03;;;;;;;0.73;0.60;;;10.80;99.90;;;;;;5013143;28;20421;-69
2021/10/21 07:17:29;;;;;;;0.70;0.50;;;10.80;99.90;;;;;;5017537;28;20448;-70
2021/10/21 07:19:54;;;;;;;0.70;0.57;;;10.70;99.90;;;;;;5030782;28;20908;-70
2021/10/21 07:22:20;;;;;;;0.70;0.50;;;10.70;99.90;;;;;;5028631;28;20183;-69
2021/10/21 07:24:46;;;;;;;0.70;0.50;;;10.70;99.90;;;;;;5013168;28;20172;-69
2021/10/21 07:27:11;;;;;;;0.70;0.50;;;10.70;99.90;;;;;;5014876;28;20646;-69
2021/10/21 07:29:37;;;;;;;0.80;0.70;;;10.70;99.90;;;;;;5028465;28;20202;-68
2021/10/21 07:32:03;;;;;;;0.70;0.50;;;10.70;99.90;;;;;;5037899;28;20176;-68
2021/10/21 07:34:29;;;;;;;0.70;0.50;;;10.70;99.90;;;;;;5027781;28;20206;-68
2021/10/21 07:36:54;;;;;;;0.70;0.50;;;10.60;99.90;;;;;;5018284;28;20517;-68
2021/10/21 07:39:22;;;;;;;0.87;0.87;;;10.60;99.90;;;;;;5029287;28;20837;-68
2021/10/21 07:41:48;;;;;;;0.73;0.60;;;10.60;99.90;;;;;;5022805;28;20180;-68
2021/10/21 07:44:14;;;;;;;0.70;0.50;;;10.60;99.90;;;;;;5018576;28;20429;-68
2021/10/21 07:46:42;;;;;;;1.83;0.77;;;10.60;99.90;;;;;;5031676;28;20431;-68
2021/10/21 07:49:08;;;;;;;0.70;0.50;;;10.70;99.90;;;;;;5018393;28;20442;-68
2021/10/21 07:51:34;;;;;;;0.70;0.50;;;10.90;99.90;;;;;;5029862;28;20930;-68
2021/10/21 07:54:00;;;;;;;0.70;0.50;;;10.90;99.90;;;;;;5038085;28;20505;-68
2021/10/21 07:56:27;;;;;;;0.83;0.73;;;11.00;99.90;;;;;;5034919;28;21043;-67
2021/10/21 07:58:53;;;;;;;0.70;0.50;;;11.10;99.90;;;;;;5037014;28;20229;-68
2021/10/21 08:01:18;;;;;;;0.70;0.50;;;11.30;99.90;;;;;;5026652;28;20412;-68
2021/10/21 08:03:44;;;;;;;0.70;0.50;;;11.40;99.90;;;;;;5025790;28;20164;-69
2021/10/21 08:06:09;;;;;;;1.43;1.00;;;11.50;99.90;;;;;;5027129;28;20183;-69
2021/10/21 08:08:35;;;;;;;1.17;0.70;;;11.60;99.90;;;;;;5028955;28;20254;-69
2021/10/21 08:11:00;;;;;;;0.70;0.50;;;11.70;99.90;;;;;;5026854;28;20188;-68
2021/10/21 08:13:26;;;;;;;0.70;0.50;;;11.80;99.90;;;;;;5028837;28;20183;-69
2021/10/21 08:15:51;;;;;;;0.70;0.50;;;11.90;99.90;;;;;;5028517;28;20216;-68
2021/10/21 08:18:17;;;;;;;2.40;1.77;;;11.80;99.90;;;;;;5026780;28;20163;-70
2021/10/21 08:20:44;;;;;;;0.80;0.60;;;12.00;99.90;;;;;;5028452;28;20179;-68
2021/10/21 08:23:10;;;;;;;0.70;0.60;;;12.00;99.90;;;;;;5028050;28;20191;-70
2021/10/21 08:25:36;;;;;;;1.90;1.23;;;12.00;99.90;;;;;;5026687;28;20948;-69
2021/10/21 08:28:02;;;;;;;0.90;0.63;;;12.20;99.90;;;;;;5028530;28;20817;-68
2021/10/21 08:30:29;;;;;;;0.80;0.57;;;12.60;99.90;;;;;;5024183;28;20533;-69
2021/10/21 08:32:57;;;;;;;1.20;0.60;;;12.90;99.90;;;;;;5025957;28;20410;-69
2021/10/21 08:35:24;;;;;;;0.80;0.70;;;13.10;99.90;;;;;;5025512;28;20441;-69
2021/10/21 08:37:50;;;;;;;0.70;0.57;;;13.30;99.90;;;;;;5028260;28;20437;-68
2021/10/21 08:40:16;;;;;;;0.70;0.50;;;13.60;99.90;;;;;;5023984;28;20415;-69
2021/10/21 08:42:43;;;;;;;0.80;0.73;;;13.60;99.90;;;;;;5022872;28;20171;-69
2021/10/21 08:45:08;;;;;;;0.80;0.60;;;13.50;99.90;;;;;;5022943;28;20429;-70
2021/10/21 08:47:37;;;;;;;1.33;0.87;;;13.60;99.90;;;;;;5023015;28;20955;-69
2021/10/21 08:50:06;;;;;;;0.70;0.50;;;13.60;99.90;;;;;;5023781;28;20211;-69
2021/10/21 08:52:31;;;;;;;0.80;0.70;;;13.80;99.90;;;;;;5023015;28;20449;-69
2021/10/21 08:54:57;;;;;;;0.70;0.50;;;13.90;99.90;;;;;;5024479;28;20458;-69
2021/10/21 08:57:22;;;;;;;1.00;0.80;;;14.00;99.90;;;;;;5025325;28;20693;-70
2021/10/21 08:59:48;;;;;;;4.60;0.73;;;14.20;99.90;;;;;;5025221;28;20251;-68
2021/10/21 09:02:24;;;;;;;0.80;0.60;;;14.20;99.90;;;;;;5026359;28;20182;-69
2021/10/21 09:10:08;;;;;;;0.70;0.50;;;15.60;99.90;;;;;;5034394;28;20511;-68
2021/10/21 09:12:40;;;;;;;0.70;0.50;;;16.20;99.90;;;;;;5033468;28;20414;-68
2021/10/21 09:15:16;;;;;;;1.00;0.77;;;16.00;99.90;;;;;;5033607;28;20591;-69
2021/10/21 09:17:42;;;;;;;1.30;1.20;;;16.00;99.90;;;;;;5031963;28;20418;-69
2021/10/21 09:20:26;;;;;;;0.70;0.50;;;16.10;99.90;;;;;;5027551;28;20955;-69
2021/10/21 09:22:57;;;;;;;0.80;0.70;;;16.00;99.90;;;;;;5021067;28;20424;-68
2021/10/21 09:25:24;;;;;;;0.70;0.60;;;16.00;99.90;;;;;;5022727;28;20523;-69
2021/10/21 09:27:50;;;;;;;0.80;0.60;;;16.30;99.90;;;;;;5023440;28;20445;-69
2021/10/21 09:30:23;;;;;;;0.70;0.60;;;16.70;99.90;;;;;;5020607;28;20446;-68
2021/10/21 09:32:48;;;;;;;1.30;0.90;;;16.80;99.90;;;;;;5019026;28;20414;-68
2021/10/21 09:35:18;;;;;;;2.40;0.90;;;17.00;99.90;;;;;;5022515;28;20439;-68
2021/10/21 09:37:46;;;;;;;0.70;0.60;;;17.20;99.90;;;;;;5024100;28;20171;-69
2021/10/21 09:40:20;;;;;;;0.70;0.60;;;18.00;99.90;;;;;;5023144;28;20925;-69
2021/10/21 09:42:58;;;;;;;1.93;0.80;;;17.80;99.90;;;;;;5026326;28;20939;-68
2021/10/21 09:45:28;;;;;;;0.70;0.50;;;17.20;99.90;;;;;;5024078;28;20932;-69
2021/10/21 09:47:57;;;;;;;0.70;0.50;;;16.30;99.90;;;;;;5022351;28;20418;-68
2021/10/21 09:50:32;;;;;;;0.70;0.50;;;15.90;99.90;;;;;;5021969;28;20451;-68
2021/10/21 09:53:22;;;;;;;0.70;0.50;;;15.40;99.90;;;;;;5024587;28;20414;-69
2021/10/21 09:55:50;;;;;;;0.70;0.50;;;15.20;99.90;;;;;;5022748;28;20435;-69
2021/10/21 09:58:19;;;;;;;0.70;0.50;;;14.90;99.90;;;;;;5021815;28;20415;-69
2021/10/21 10:00:45;;;;;;;0.70;0.50;;;14.70;99.90;;;;;;5021475;28;20410;-69
2021/10/21 10:03:13;;;;;;;0.70;0.50;;;14.60;99.90;;;;;;5022043;28;20806;-68
2021/10/21 10:05:47;;;;;;;0.70;0.50;;;14.30;99.90;;;;;;5024219;28;20935;-68
2021/10/21 10:08:14;;;;;;;1.10;0.90;;;14.20;99.90;;;;;;5022218;28;20415;-69
2021/10/21 10:10:41;;;;;;;0.70;0.50;;;14.20;99.90;;;;;;5024558;28;20554;-70
2021/10/21 10:13:08;;;;;;;0.70;0.50;;;14.00;99.90;;;;;;5022865;28;20819;-69
2021/10/21 10:15:35;;;;;;;1.30;1.17;;;13.90;99.90;;;;;;5022690;28;20426;-68
2021/10/21 10:18:04;;;;;;;0.70;0.50;;;13.80;99.90;;;;;;5015152;28;20426;-68
2021/10/21 10:20:30;;;;;;;0.70;0.50;;;13.70;99.90;;;;;;5013123;28;20423;-69
2021/10/21 10:22:58;;;;;;;0.70;0.50;;;13.60;99.90;;;;;;5019847;28;20568;-69
2021/10/21 10:25:25;;;;;;;0.70;0.53;;;13.50;99.90;;;;;;5031868;28;20196;-69
2021/10/21 10:28:04;;;;;;;1.80;1.70;;;13.40;99.90;;;;;;5013036;28;20905;-69
2021/10/21 10:30:40;;;;;;;0.70;0.50;;;13.50;99.90;;;;;;5013000;28;20469;-69
2021/10/21 10:33:06;;;;;;;0.70;0.50;;;13.60;99.90;;;;;;5012972;28;20423;-69
2021/10/21 10:35:33;;;;;;;1.97;0.70;;;13.60;99.90;;;;;;5024031;28;20445;-69
2021/10/21 10:38:04;;;;;;;0.70;0.50;;;13.40;99.90;;;;;;5015104;28;20172;-69
2021/10/21 10:40:42;;;;;;;0.70;0.50;;;13.30;99.90;;;;;;5012939;28;20423;-69
2021/10/21 10:43:09;;;;;;;0.70;0.50;;;13.20;99.90;;;;;;5028551;28;20446;-68
2021/10/21 10:45:53;;;;;;;0.70;0.50;;;13.30;99.90;;;;;;5022141;28;20449;-69
2021/10/21 10:48:47;;;;;;;0.70;0.50;;;13.20;99.90;;;;;;5019866;28;20477;-68
2021/10/21 10:51:13;;;;;;;0.70;0.50;;;13.10;99.90;;;;;;5021261;28;20513;-69
2021/10/21 10:53:42;;;;;;;0.70;0.50;;;13.20;99.90;;;;;;5019727;28;20423;-69
2021/10/21 10:56:08;;;;;;;0.70;0.50;;;13.30;99.90;;;;;;5023428;28;20200;-69
2021/10/21 10:58:34;;;;;;;0.77;0.67;;;13.50;99.90;;;;;;5023072;28;20422;-69
2021/10/21 11:01:00;;;;;;;0.70;0.50;;;13.90;99.90;;;;;;5018711;28;20196;-69
2021/10/21 11:03:33;;;;;;;1.10;1.00;;;14.40;99.90;;;;;;5019056;28;20168;-69
2021/10/21 11:06:04;;;;;;;0.70;0.60;;;14.50;99.90;;;;;;5012249;28;20424;-69
2021/10/21 11:08:48;;;;;;;0.70;0.50;;;14.50;99.90;;;;;;5022002;28;20501;-69
2021/10/21 11:11:40;;;;;;;0.70;0.50;;;14.50;99.90;;;;;;5029675;28;20469;-69
2021/10/21 11:14:09;;;;;;;1.63;1.07;;;14.60;99.90;;;;;;5022617;28;20407;-69
2021/10/21 11:16:35;;;;;;;0.80;0.67;;;14.60;99.90;;;;;;5013067;28;20442;-68
2021/10/21 11:19:01;;;;;;;1.07;0.97;;;14.50;99.90;;;;;;5012358;28;20928;-68
2021/10/21 11:21:53;;;;;;;0.80;0.60;;;14.60;99.90;;;;;;5022070;28;20410;-70
2021/10/21 11:24:44;;;;;;;0.80;0.77;;;14.20;99.90;;;;;;5012181;28;20172;-69
2021/10/21 11:27:10;;;;;;;0.70;0.50;;;14.20;99.90;;;;;;5031327;28;20406;-69
2021/10/21 11:29:36;;;;;;;0.80;0.70;;;14.30;99.90;;;;;;5031899;28;20456;-69
2021/10/21 11:32:06;;;;;;;0.70;0.50;;;14.40;99.90;;;;;;5031904;28;20777;-69
2021/10/21 11:34:32;;;;;;;0.70;0.50;;;14.40;99.90;;;;;;5031541;28;20398;-68
2021/10/21 11:36:58;;;;;;;0.70;0.50;;;14.40;99.90;;;;;;5031716;28;20395;-69
2021/10/21 11:39:36;;;;;;;0.70;0.50;;;14.50;99.90;;;;;;5018449;28;20184;-68
2021/10/21 11:42:03;;;;;;;0.80;0.77;;;14.50;99.90;;;;;;5017512;28;20672;-69
2021/10/21 11:44:28;;;;;;;0.70;0.60;;;14.50;99.90;;;;;;5013330;28;20430;-69
2021/10/21 11:46:58;;;;;;;3.23;1.00;;;14.50;99.90;;;;;;5012858;28;21222;-69
2021/10/21 11:49:28;;;;;;;0.70;0.50;;;14.40;99.90;;;;;;5011863;28;20540;-70
2021/10/21 11:52:10;;;;;;;0.77;0.57;;;14.40;99.90;;;;;;5013116;28;20405;-69
2021/10/21 11:54:37;;;;;;;0.80;0.80;;;14.30;99.90;;;;;;5025151;28;20453;-69
2021/10/21 11:57:04;;;;;;;0.70;0.50;;;14.40;99.90;;;;;;5028002;28;20437;-68
2021/10/21 11:59:38;;;;;;;0.70;0.50;;;14.20;99.90;;;;;;5015236;28;20497;-69
2021/10/21 12:02:12;;;;;;;0.70;0.50;;;14.00;99.90;;;;;;5012024;28;20934;-69
2021/10/21 12:04:42;;;;;;;0.70;0.50;;;13.90;99.90;;;;;;5011847;28;20406;-68
2021/10/21 12:07:09;;;;;;;0.70;0.50;;;13.60;99.90;;;;;;5012672;28;21023;-68
2021/10/21 12:09:36;;;;;;;0.70;0.50;;;13.50;99.90;;;;;;5011636;28;20446;-69
2021/10/21 12:12:07;;;;;;;1.10;0.80;;;13.40;99.90;;;;;;5014471;28;20410;-68
2021/10/21 12:14:35;;;;;;;0.90;0.80;;;13.30;99.90;;;;;;5033727;28;20418;-69
2021/10/21 12:17:01;;;;;;;0.70;0.50;;;13.20;99.90;;;;;;5033410;28;20426;-68
2021/10/21 12:19:29;;;;;;;0.70;0.50;;;13.10;99.90;;;;;;5035232;28;20944;-68
2021/10/21 12:22:14;;;;;;;0.70;0.50;;;13.10;99.90;;;;;;5026787;28;20444;-68
2021/10/21 12:24:42;;;;;;;0.70;0.50;;;12.80;99.90;;;;;;5034762;28;20453;-68
2021/10/21 12:27:08;;;;;;;0.70;0.50;;;12.60;99.90;;;;;;5028354;28;20457;-69
2021/10/21 12:29:43;;;;;;;1.00;0.57;;;12.20;99.90;;;;;;5034605;28;20975;-68
2021/10/21 12:32:13;;;;;;;0.80;0.70;;;11.90;99.90;;;;;;5034639;28;20828;-68
2021/10/21 12:34:39;;;;;;;0.70;0.50;;;11.70;99.90;;;;;;5033240;28;20398;-69
2021/10/21 12:37:12;;;;;;;0.70;0.50;;;11.50;99.90;;;;;;5033107;28;20413;-68
2021/10/21 12:39:38;;;;;;;0.70;0.50;;;11.40;99.90;;;;;;5016576;28;20419;-68
2021/10/21 12:42:07;;;;;;;0.70;0.50;;;11.20;99.90;;;;;;5033250;28;20510;-68
2021/10/21 12:44:41;;;;;;;0.70;0.50;;;11.10;99.90;;;;;;5034542;28;20218;-68
2021/10/21 12:47:23;;;;;;;0.70;0.50;;;11.00;99.90;;;;;;5027182;28;20477;-68
2021/10/21 12:50:10;;;;;;;0.70;0.50;;;10.90;99.90;;;;;;5015055;28;20462;-68
2021/10/21 12:52:44;;;;;;;0.70;0.50;;;10.90;99.90;;;;;;5019918;28;20426;-68
2021/10/21 12:55:18;;;;;;;0.70;0.50;;;10.80;99.90;;;;;;5033947;28;20511;-68